createdAt,value
2023-01-04T00:01:03.635Z,98266.16
2023-01-04T00:03:31.972Z,98275.50
2023-01-04T00:05:59.647Z,98279.94
2023-01-04T00:08:26.201Z,98287.75
2023-01-04T00:10:52.546Z,98305.22
2023-01-04T00:13:18.902Z,98302.75
2023-01-04T00:15:45.546Z,98287.13
2023-01-04T00:18:12.051Z,98299.41
2023-01-04T00:20:38.439Z,98287.53
2023-01-04T00:23:04.842Z,98287.44
2023-01-04T00:25:31.227Z,98301.84
2023-01-04T00:27:57.586Z,98326.28
2023-01-04T00:30:23.937Z,98332.41
2023-01-04T00:32:50.346Z,98335.69
2023-01-04T00:35:43.569Z,98336.50
2023-01-04T00:38:03.523Z,98351.94
2023-01-04T00:40:29.869Z,98363.28
2023-01-04T00:42:56.229Z,98367.75
2023-01-04T00:45:22.900Z,98365.16
2023-01-04T00:47:49.280Z,98363.38
2023-01-04T00:50:15.701Z,98362.38
2023-01-04T00:52:42.141Z,98368.38
2023-01-04T00:55:08.966Z,98378.09
2023-01-04T00:57:35.309Z,98385.06
2023-01-04T01:00:01.884Z,98388.53
2023-01-04T01:02:28.495Z,98385.13
2023-01-04T01:04:55.053Z,98380.91
2023-01-04T01:07:21.422Z,98381.69
2023-01-04T01:09:47.761Z,98371.34
2023-01-04T01:12:14.139Z,98366.22
2023-01-04T01:14:40.523Z,98351.50
2023-01-04T01:17:06.967Z,98332.66
2023-01-04T01:19:33.475Z,98310.97
2023-01-04T01:21:59.886Z,98312.97
2023-01-04T01:24:26.444Z,98290.44
2023-01-04T01:26:52.827Z,98269.81
2023-01-04T01:29:19.458Z,98255.88
2023-01-04T01:31:45.935Z,98253.00
2023-01-04T01:34:12.374Z,98268.63
2023-01-04T01:36:38.749Z,98259.03
2023-01-04T01:39:05.981Z,98285.91
2023-01-04T01:41:33.325Z,98285.00
2023-01-04T01:44:12.615Z,98289.28
2023-01-04T01:46:43.099Z,98302.91
2023-01-04T01:49:25.401Z,98306.63
2023-01-04T01:51:55.644Z,98313.50
2023-01-04T01:54:27.192Z,98322.06
2023-01-04T01:56:53.749Z,98320.53
2023-01-04T01:59:20.099Z,98310.19
2023-01-04T02:01:46.698Z,98307.75
2023-01-04T02:04:13.588Z,98309.50
2023-01-04T02:06:42.424Z,98304.16
2023-01-04T02:09:08.985Z,98313.63
2023-01-04T02:11:35.348Z,98318.53
2023-01-04T02:14:20.565Z,98336.78
2023-01-04T02:16:56.234Z,98338.63
2023-01-04T02:19:37.587Z,98333.41
2023-01-04T02:22:04.036Z,98323.91
2023-01-04T02:24:45.358Z,98318.72
2023-01-04T02:27:20.728Z,98299.69
2023-01-04T02:30:10.301Z,98293.59
2023-01-04T02:32:45.811Z,98282.25
2023-01-04T02:35:47.143Z,98292.34
2023-01-04T02:38:29.827Z,98292.34
2023-01-04T02:41:04.155Z,98287.91
2023-01-04T02:43:56.042Z,98283.59
2023-01-04T02:46:35.320Z,98270.50
2023-01-04T02:49:20.864Z,98266.84
2023-01-04T02:51:47.504Z,98269.38
2023-01-04T02:54:18.807Z,98275.25
2023-01-04T02:57:05.568Z,98283.00
2023-01-04T02:59:54.864Z,98281.13
2023-01-04T03:02:46.308Z,98284.34
2023-01-04T03:05:44.535Z,98279.31
2023-01-04T03:08:31.878Z,98269.56
2023-01-04T03:11:04.250Z,98284.06
2023-01-04T03:13:41.127Z,98271.09
2023-01-04T03:16:10.503Z,98277.00
2023-01-04T03:18:40.627Z,98268.25
2023-01-04T03:21:08.057Z,98294.00
2023-01-04T03:23:54.816Z,98301.66
2023-01-04T03:26:42.434Z,98319.75
2023-01-04T03:29:31.831Z,98314.38
2023-01-04T03:32:20.257Z,98319.59
2023-01-04T03:35:05.931Z,98324.63
2023-01-04T03:37:33.942Z,98321.28
2023-01-04T03:40:22.749Z,98318.53
2023-01-04T03:43:18.511Z,98318.59
2023-01-04T03:46:12.785Z,98308.84
2023-01-04T03:48:49.498Z,98295.97
2023-01-04T03:51:21.892Z,98310.53
2023-01-04T03:53:59.899Z,98318.28
2023-01-04T03:56:26.929Z,98317.28
2023-01-04T03:58:54.661Z,98321.47
2023-01-04T04:01:21.626Z,98320.47
2023-01-04T04:04:06.872Z,98309.03
2023-01-04T04:06:52.235Z,98305.44
2023-01-04T04:09:18.623Z,98313.09
2023-01-04T04:11:45.181Z,98292.09
2023-01-04T04:14:11.554Z,98264.22
2023-01-04T04:16:38.188Z,98186.91
2023-01-04T04:19:08.795Z,98096.81
2023-01-04T04:21:35.531Z,97972.94
2023-01-04T04:24:02.089Z,97836.06
2023-01-04T04:26:28.559Z,97704.44
2023-01-04T04:28:55.201Z,97541.53
2023-01-04T04:31:21.668Z,97366.84
2023-01-04T04:33:48.266Z,97211.66
2023-01-04T04:36:14.662Z,97062.66
2023-01-04T04:38:41.121Z,96950.66
2023-01-04T04:41:28.056Z,96812.34
2023-01-04T04:43:54.741Z,96685.69
2023-01-04T04:46:21.146Z,96568.38
2023-01-04T04:48:47.796Z,96451.88
2023-01-04T04:51:14.233Z,96366.34
2023-01-04T04:53:40.787Z,96331.28
2023-01-04T04:56:07.587Z,96274.00
2023-01-04T04:58:34.147Z,96213.25
2023-01-04T05:01:00.792Z,96161.06
2023-01-04T05:03:27.288Z,96099.53
2023-01-04T05:05:53.975Z,96007.00
2023-01-04T05:08:20.344Z,95908.31
2023-01-04T05:10:46.913Z,95850.50
2023-01-04T05:13:13.298Z,95780.63
2023-01-04T05:15:41.306Z,95715.41
2023-01-04T05:18:08.388Z,95642.50
2023-01-04T05:20:34.842Z,95600.16
2023-01-04T05:23:01.189Z,95526.59
2023-01-04T05:25:27.634Z,95457.94
2023-01-04T05:27:54.470Z,95408.47
2023-01-04T05:30:39.675Z,95337.22
2023-01-04T05:33:06.117Z,95257.78
2023-01-04T05:35:32.694Z,95167.34
2023-01-04T05:37:59.062Z,95120.50
2023-01-04T05:40:25.441Z,95088.94
2023-01-04T05:42:51.836Z,95082.09
2023-01-04T05:45:19.384Z,95075.13
2023-01-04T05:47:45.936Z,95072.38
2023-01-04T05:50:12.347Z,95050.56
2023-01-04T05:52:38.707Z,95048.59
2023-01-04T05:55:05.471Z,95035.94
2023-01-04T05:57:31.891Z,95026.66
2023-01-04T05:59:58.247Z,95046.34
2023-01-04T06:02:26.662Z,95074.38
2023-01-04T06:04:58.460Z,95097.81
2023-01-04T06:07:25.569Z,95130.38
2023-01-04T06:09:51.957Z,95165.50
2023-01-04T06:12:18.508Z,95190.91
2023-01-04T06:14:44.859Z,95215.00
2023-01-04T06:17:11.510Z,95236.66
2023-01-04T06:19:37.972Z,95220.19
2023-01-04T06:22:04.401Z,95231.94
2023-01-04T06:24:30.834Z,95225.09
2023-01-04T06:26:57.396Z,95252.78
2023-01-04T06:29:23.958Z,95229.34
2023-01-04T06:31:50.385Z,95203.28
2023-01-04T06:34:16.760Z,95230.03
2023-01-04T06:36:43.195Z,95202.34
2023-01-04T06:39:09.841Z,95185.06
2023-01-04T06:41:36.265Z,95138.53
2023-01-04T06:44:02.819Z,95102.06
2023-01-04T06:46:29.220Z,95099.81
2023-01-04T06:48:55.987Z,95092.63
2023-01-04T06:51:22.427Z,95105.66
2023-01-04T06:53:49.250Z,95130.06
2023-01-04T06:56:15.748Z,95147.16
2023-01-04T06:58:42.158Z,95185.25
2023-01-04T07:01:08.823Z,95233.31
2023-01-04T07:03:35.361Z,95286.06
2023-01-04T07:06:06.438Z,95381.03
2023-01-04T07:08:33.563Z,95443.88
2023-01-04T07:11:00.193Z,95502.69
2023-01-04T07:13:26.551Z,95574.34
2023-01-04T07:15:53.150Z,95657.03
2023-01-04T07:18:19.592Z,95713.81
2023-01-04T07:20:46.132Z,95779.66
2023-01-04T07:23:12.499Z,95773.59
2023-01-04T07:25:39.096Z,95765.66
2023-01-04T07:28:05.626Z,95762.19
2023-01-04T07:30:32.050Z,95733.00
2023-01-04T07:32:58.487Z,95684.47
2023-01-04T07:35:25.163Z,95679.78
2023-01-04T07:37:57.865Z,95709.28
2023-01-04T07:40:25.714Z,95692.41
2023-01-04T07:42:57.215Z,95713.25
2023-01-04T07:45:23.847Z,95699.25
2023-01-04T07:47:50.254Z,95702.50
2023-01-04T07:50:16.765Z,95698.13
2023-01-04T07:52:43.186Z,95697.00
2023-01-04T07:55:09.776Z,95689.56
2023-01-04T07:57:36.213Z,95730.69
2023-01-04T08:00:02.740Z,95733.47
2023-01-04T08:02:29.189Z,95734.28
2023-01-04T08:04:56.497Z,95730.69
2023-01-04T08:07:23.412Z,95732.88
2023-01-04T08:09:49.783Z,95725.19
2023-01-04T08:12:16.154Z,95713.13
2023-01-04T08:14:42.526Z,95730.41
2023-01-04T08:17:09.804Z,95740.84
2023-01-04T08:19:36.150Z,95749.34
2023-01-04T08:22:02.721Z,95751.25
2023-01-04T08:24:29.098Z,95757.19
2023-01-04T08:26:55.494Z,95749.34
2023-01-04T08:29:22.120Z,95759.78
2023-01-04T08:31:48.540Z,95758.81
2023-01-04T08:34:15.036Z,95783.91
2023-01-04T08:36:47.210Z,95795.00
2023-01-04T08:39:13.617Z,95822.75
2023-01-04T08:42:06.810Z,95833.97
2023-01-04T08:44:39.000Z,95825.34
2023-01-04T08:47:05.443Z,95827.78
2023-01-04T08:49:31.967Z,95831.88
2023-01-04T08:51:58.373Z,95843.84
2023-01-04T08:54:24.936Z,95861.94
2023-01-04T08:56:51.351Z,95874.97
2023-01-04T08:59:17.918Z,95892.28
2023-01-04T09:01:44.494Z,95885.41
2023-01-04T09:04:11.043Z,95847.25
2023-01-04T09:06:37.688Z,95803.91
2023-01-04T09:09:04.222Z,95781.09
2023-01-04T09:11:30.620Z,95745.69
2023-01-04T09:14:06.451Z,95727.31
2023-01-04T09:16:33.563Z,95725.66
2023-01-04T09:19:00.271Z,95728.94
2023-01-04T09:21:26.796Z,95727.31
2023-01-04T09:23:53.228Z,95706.44
2023-01-04T09:26:23.023Z,95679.41
2023-01-04T09:28:53.244Z,95565.94
2023-01-04T09:31:21.907Z,95403.28
2023-01-04T09:34:13.542Z,95203.34
2023-01-04T09:36:34.735Z,94980.66
2023-01-04T09:39:01.086Z,94823.66
2023-01-04T09:41:39.206Z,94673.03
2023-01-04T09:44:08.656Z,94519.47
2023-01-04T09:46:38.711Z,94392.78
2023-01-04T09:49:11.369Z,94276.19
2023-01-04T09:51:37.786Z,94176.56
2023-01-04T09:54:13.385Z,94059.97
2023-01-04T09:56:48.133Z,93986.19
2023-01-04T09:59:15.719Z,93912.66
2023-01-04T10:01:43.835Z,93852.19
2023-01-04T10:04:19.143Z,93826.53
2023-01-04T10:06:45.561Z,93779.28
2023-01-04T10:09:13.606Z,93768.06
2023-01-04T10:11:45.773Z,93760.06
2023-01-04T10:14:50.783Z,93778.91
2023-01-04T10:17:37.830Z,93823.09
2023-01-04T10:21:20.829Z,93904.13
2023-01-04T10:23:37.607Z,93968.31
2023-01-04T10:26:11.182Z,94023.69
2023-01-04T10:28:59.478Z,94093.13
2023-01-04T10:31:40.832Z,94155.53
2023-01-04T10:34:27.212Z,94239.22
2023-01-04T10:36:58.741Z,94287.78
2023-01-04T10:39:32.428Z,94344.63
2023-01-04T10:42:18.364Z,94392.63
2023-01-04T10:44:53.929Z,94454.88
2023-01-04T10:47:34.890Z,94511.53
2023-01-04T10:50:05.582Z,94577.41
2023-01-04T10:52:36.404Z,94646.16
2023-01-04T10:55:11.058Z,94700.00
2023-01-04T10:57:41.224Z,94786.84
2023-01-04T11:00:12.437Z,94837.44
2023-01-04T11:02:41.212Z,94841.50
2023-01-04T11:05:20.802Z,94784.75
2023-01-04T11:08:01.120Z,94645.81
2023-01-04T11:10:29.958Z,94536.56
2023-01-04T11:12:56.319Z,94423.75
2023-01-04T11:15:22.711Z,94353.47
2023-01-04T11:17:49.278Z,94284.84
2023-01-04T11:20:15.878Z,94233.03
2023-01-04T11:23:03.264Z,94147.31
2023-01-04T11:25:35.923Z,94044.75
2023-01-04T11:28:09.184Z,93936.56
2023-01-04T11:30:42.777Z,93803.13
2023-01-04T11:33:17.309Z,93689.59
2023-01-04T11:35:44.584Z,93591.50
2023-01-04T11:38:19.232Z,93518.31
2023-01-04T11:40:57.494Z,93403.19
2023-01-04T11:43:24.248Z,93310.09
2023-01-04T11:45:54.468Z,93249.53
2023-01-04T11:48:31.573Z,93144.34
2023-01-04T11:50:57.980Z,93081.34
2023-01-04T11:53:37.228Z,92999.72
2023-01-04T11:56:17.363Z,92931.69
2023-01-04T11:58:45.112Z,92891.94
2023-01-04T12:01:22.921Z,92836.94
2023-01-04T12:03:49.662Z,92744.66
2023-01-04T12:06:41.120Z,92677.84
2023-01-04T12:09:12.870Z,92632.41
2023-01-04T12:11:41.820Z,92558.38
2023-01-04T12:14:28.911Z,92484.31
2023-01-04T12:17:05.371Z,92395.66
2023-01-04T12:19:31.750Z,92267.44
2023-01-04T12:21:59.696Z,92179.56
2023-01-04T12:24:33.116Z,92114.06
2023-01-04T12:27:00.192Z,91948.75
2023-01-04T12:29:54.636Z,91849.16
2023-01-04T12:32:27.020Z,91807.97
2023-01-04T12:34:53.943Z,91771.75
2023-01-04T12:37:42.477Z,91719.94
2023-01-04T12:40:46.497Z,91668.84
2023-01-04T12:43:16.068Z,91663.34
2023-01-04T12:45:43.168Z,91644.84
2023-01-04T12:48:46.646Z,91627.44
2023-01-04T12:51:32.646Z,91655.03
2023-01-04T12:54:04.006Z,91615.69
2023-01-04T12:57:07.995Z,91589.59
2023-01-04T12:59:36.641Z,91548.69
2023-01-04T13:02:16.455Z,91500.44
2023-01-04T13:04:43.035Z,91448.28
2023-01-04T13:07:25.285Z,91381.25
2023-01-04T13:09:58.154Z,91321.00
2023-01-04T13:12:52.944Z,91281.38
2023-01-04T13:16:01.904Z,91248.53
2023-01-04T13:18:39.903Z,91224.75
2023-01-04T13:21:33.655Z,91212.00
2023-01-04T13:24:02.858Z,91193.19
2023-01-04T13:26:32.344Z,91173.91
2023-01-04T13:29:08.373Z,91170.25
2023-01-04T13:31:54.511Z,91157.22
2023-01-04T13:35:01.589Z,91130.06
2023-01-04T13:37:37.917Z,91107.63
2023-01-04T13:40:26.232Z,91109.72
2023-01-04T13:43:11.618Z,91089.59
2023-01-04T13:46:09.241Z,91071.34
2023-01-04T13:48:37.413Z,91045.78
2023-01-04T13:51:05.631Z,91020.47
2023-01-04T13:53:32.645Z,90992.81
2023-01-04T13:56:02.942Z,90942.19
2023-01-04T13:58:33.201Z,90896.78
2023-01-04T14:01:19.190Z,90811.50
2023-01-04T14:04:05.774Z,90745.72
2023-01-04T14:06:34.206Z,90706.88
2023-01-04T14:09:09.896Z,90647.34
2023-01-04T14:14:58.368Z,90527.28
2023-01-04T14:17:32.864Z,90464.09
2023-01-04T14:20:04.449Z,90413.47
2023-01-04T14:22:40.513Z,90350.56
2023-01-04T14:25:38.061Z,90217.22
2023-01-04T14:28:41.813Z,90122.72
2023-01-04T14:31:19.770Z,90045.41
2023-01-04T14:33:47.858Z,89955.00
2023-01-04T14:36:30.609Z,89902.81
2023-01-04T14:39:07.067Z,89813.06
2023-01-04T14:41:48.757Z,89755.03
2023-01-04T14:44:16.670Z,89686.59
2023-01-04T14:46:46.740Z,89642.09
2023-01-04T14:49:15.700Z,89579.44
2023-01-04T14:51:48.756Z,89534.00
2023-01-04T14:54:22.234Z,89505.78
2023-01-04T14:56:51.270Z,89445.28
2023-01-04T14:59:17.848Z,89424.53
2023-01-04T15:01:44.417Z,89408.56
2023-01-04T15:04:10.992Z,89386.28
2023-01-04T15:06:37.421Z,89372.16
2023-01-04T15:09:04.308Z,89354.31
2023-01-04T15:11:33.664Z,89342.34
2023-01-04T15:13:59.994Z,89191.75
2023-01-04T15:16:26.381Z,89145.50
2023-01-04T15:18:53.048Z,89130.31
2023-01-04T15:21:19.485Z,89092.66
2023-01-04T15:23:45.853Z,89090.50
2023-01-04T15:26:12.537Z,89083.13
2023-01-04T15:28:38.961Z,89067.44
2023-01-04T15:31:10.468Z,89067.88
2023-01-04T15:33:37.380Z,89034.81
2023-01-04T15:36:06.313Z,89023.75
2023-01-04T15:38:32.954Z,88966.78
2023-01-04T15:41:01.248Z,88913.47
2023-01-04T15:43:31.226Z,88867.53
2023-01-04T15:46:07.376Z,88799.34
2023-01-04T15:48:36.464Z,88796.25
2023-01-04T15:51:07.737Z,88846.78
2023-01-04T15:53:34.746Z,88899.91
2023-01-04T15:56:08.244Z,88971.03
2023-01-04T15:58:34.856Z,89084.66
2023-01-04T16:01:07.665Z,89238.94
2023-01-04T16:03:35.313Z,89455.47
2023-01-04T16:06:13.247Z,89760.06
2023-01-04T16:08:40.291Z,90205.06
2023-01-04T16:11:19.975Z,90688.34
2023-01-04T16:13:47.133Z,91230.38
2023-01-04T16:16:13.674Z,91729.66
2023-01-04T16:18:44.666Z,92231.44
2023-01-04T16:21:11.110Z,92692.56
2023-01-04T16:23:37.536Z,93070.34
2023-01-04T16:26:05.562Z,93374.97
2023-01-04T16:28:31.991Z,93687.41
2023-01-04T16:30:58.417Z,93907.94
2023-01-04T16:33:24.860Z,94112.38
2023-01-04T16:35:58.760Z,94254.56
2023-01-04T16:38:25.146Z,94332.03
2023-01-04T16:40:59.029Z,94335.00
2023-01-04T16:43:25.602Z,94397.94
2023-01-04T16:45:57.270Z,94465.31
2023-01-04T16:48:23.620Z,94500.81
2023-01-04T16:50:49.981Z,94560.94
2023-01-04T16:53:16.359Z,94615.41
2023-01-04T16:55:42.716Z,94610.47
2023-01-04T16:58:09.079Z,94620.53
2023-01-04T17:00:35.506Z,94604.63
2023-01-04T17:03:01.949Z,94627.63
2023-01-04T17:05:28.307Z,94626.63
2023-01-04T17:07:54.909Z,94674.69
2023-01-04T17:10:27.181Z,94704.53
2023-01-04T17:12:55.663Z,94750.97
2023-01-04T17:18:09.460Z,94736.00
2023-01-04T17:20:35.927Z,94723.34
2023-01-04T17:23:02.337Z,94693.66
2023-01-04T17:25:28.782Z,94662.59
2023-01-04T17:27:55.137Z,94627.50
2023-01-04T17:30:21.491Z,94608.13
2023-01-04T17:32:47.855Z,94600.03
2023-01-04T17:35:14.309Z,94608.50
2023-01-04T17:37:40.687Z,94610.53
2023-01-04T17:40:07.451Z,94629.47
2023-01-04T17:42:33.927Z,94622.66
2023-01-04T17:45:00.299Z,94587.53
2023-01-04T17:47:26.695Z,94506.84
2023-01-04T17:49:53.049Z,94449.00
2023-01-04T17:52:25.820Z,94464.75
2023-01-04T17:54:55.349Z,94451.63
2023-01-04T17:57:21.714Z,94460.06
2023-01-04T17:59:48.128Z,94520.00
2023-01-04T18:02:14.578Z,94600.91
2023-01-04T18:04:41.001Z,94661.00
2023-01-04T18:07:07.386Z,94732.06
2023-01-04T18:09:33.750Z,94790.53
2023-01-04T18:12:00.126Z,94837.59
2023-01-04T18:14:27.605Z,94883.81
2023-01-04T18:16:57.922Z,94935.03
2023-01-04T18:19:26.243Z,94960.88
2023-01-04T18:21:52.704Z,94984.84
2023-01-04T18:24:36.790Z,95038.81
2023-01-04T18:27:21.450Z,95115.53
2023-01-04T18:29:48.734Z,95204.75
2023-01-04T18:32:15.088Z,95274.94
2023-01-04T18:34:41.535Z,95345.16
2023-01-04T18:37:07.927Z,95442.84
2023-01-04T18:39:34.295Z,95538.91
2023-01-04T18:42:00.679Z,95581.88
2023-01-04T18:44:35.499Z,95548.81
2023-01-04T18:47:02.919Z,95509.81
2023-01-04T18:49:29.400Z,95507.19
2023-01-04T18:51:55.796Z,95436.91
2023-01-04T18:54:22.275Z,95351.59
2023-01-04T18:56:49.006Z,95239.00
2023-01-04T18:59:17.272Z,95175.28
2023-01-04T19:01:44.186Z,95134.47
2023-01-04T19:04:12.378Z,95112.03
2023-01-04T19:06:39.265Z,95052.34
2023-01-04T19:09:06.946Z,95002.91
2023-01-04T19:11:33.794Z,94964.56
2023-01-04T19:14:00.153Z,94912.13
2023-01-04T19:16:29.603Z,94912.78
2023-01-04T19:18:57.613Z,94960.25
2023-01-04T19:21:24.150Z,94983.22
2023-01-04T19:23:51.162Z,95004.19
2023-01-04T19:26:17.548Z,95022.19
2023-01-04T19:28:43.944Z,95025.53
2023-01-04T19:31:10.465Z,95033.56
2023-01-04T19:33:37.016Z,95053.34
2023-01-04T19:36:06.187Z,95093.34
2023-01-04T19:38:32.552Z,95112.66
2023-01-04T19:40:59.525Z,95187.81
2023-01-04T19:43:26.035Z,95258.09
2023-01-04T19:45:52.435Z,95343.31
2023-01-04T19:48:19.031Z,95363.63
2023-01-04T19:50:45.426Z,95397.22
2023-01-04T19:53:11.852Z,95354.50
2023-01-04T19:55:39.318Z,95364.97
2023-01-04T19:58:05.688Z,95327.38
2023-01-04T20:00:32.128Z,95307.03
2023-01-04T20:02:58.700Z,95341.94
2023-01-04T20:05:25.193Z,95395.84
2023-01-04T20:07:51.684Z,95452.25
2023-01-04T20:10:18.116Z,95562.69
2023-01-04T20:12:44.529Z,95641.69
2023-01-04T20:15:11.820Z,95644.00
2023-01-04T20:17:38.280Z,95636.13
2023-01-04T20:20:05.076Z,95613.66
2023-01-04T20:22:32.165Z,95594.00
2023-01-04T20:24:58.553Z,95570.91
2023-01-04T20:27:24.912Z,95527.66
2023-01-04T20:29:51.268Z,95476.22
2023-01-04T20:32:17.658Z,95392.81
2023-01-04T20:34:44.037Z,95296.38
2023-01-04T20:37:10.419Z,95230.53
2023-01-04T20:39:36.860Z,95153.91
2023-01-04T20:42:22.131Z,95064.78
2023-01-04T20:44:48.541Z,94969.41
2023-01-04T20:47:14.921Z,94985.03
2023-01-04T20:49:41.288Z,95014.88
2023-01-04T20:52:07.996Z,94999.06
2023-01-04T20:54:34.451Z,95049.97
2023-01-04T20:57:00.879Z,95127.41
2023-01-04T20:59:27.263Z,95230.56
2023-01-04T21:01:53.787Z,95326.06
2023-01-04T21:04:20.224Z,95457.16
2023-01-04T21:06:46.603Z,95552.19
2023-01-04T21:09:13.001Z,95633.50
2023-01-04T21:11:39.333Z,95631.19
2023-01-04T21:14:05.757Z,95658.25
2023-01-04T21:16:32.169Z,95656.94
2023-01-04T21:18:58.603Z,95663.31
2023-01-04T21:21:24.988Z,95640.56
2023-01-04T21:23:56.256Z,95690.22
2023-01-04T21:26:24.297Z,95741.69
2023-01-04T21:28:50.703Z,95864.97
2023-01-04T21:31:19.148Z,95930.38
2023-01-04T21:33:46.199Z,95987.88
2023-01-04T21:36:20.405Z,96038.72
2023-01-04T21:38:50.765Z,96071.81
2023-01-04T21:41:17.243Z,96074.44
2023-01-04T21:43:43.700Z,96108.22
2023-01-04T21:46:14.871Z,96108.22
2023-01-04T21:48:42.151Z,96118.72
2023-01-04T21:51:08.666Z,96113.47
2023-01-04T21:53:35.963Z,96049.53
2023-01-04T21:56:04.471Z,95944.25
2023-01-04T21:58:30.999Z,95758.41
2023-01-04T22:00:57.517Z,95627.03
2023-01-04T22:03:23.932Z,95458.41
2023-01-04T22:05:50.347Z,95230.97
2023-01-04T22:08:16.752Z,95080.38
2023-01-04T22:10:43.170Z,94918.09
2023-01-04T22:13:09.778Z,94785.53
2023-01-04T22:15:39.929Z,94577.47
2023-01-04T22:18:06.933Z,94343.75
2023-01-04T22:20:33.360Z,94124.13
2023-01-04T22:22:59.786Z,93881.59
2023-01-04T22:25:26.185Z,93692.16
2023-01-04T22:27:53.480Z,93531.13
2023-01-04T22:30:19.917Z,93393.81
2023-01-04T22:32:46.281Z,93289.97
2023-01-04T22:35:12.905Z,93290.78
2023-01-04T22:37:42.245Z,93230.38
2023-01-04T22:40:09.106Z,93143.53
2023-01-04T22:42:35.508Z,93042.09
2023-01-04T22:45:02.329Z,92929.63
2023-01-04T22:47:31.475Z,92791.34
2023-01-04T22:49:57.853Z,92685.59
2023-01-04T22:52:24.248Z,92618.31
2023-01-04T22:54:50.585Z,92608.97
2023-01-04T22:57:17.171Z,92632.03
2023-01-04T22:59:43.600Z,92674.63
2023-01-04T23:02:10.071Z,92789.66
2023-01-04T23:04:36.610Z,92993.19
2023-01-04T23:07:03.032Z,93156.31
2023-01-04T23:09:29.475Z,93262.13
2023-01-04T23:11:56.183Z,93369.53
2023-01-04T23:14:22.540Z,93403.97
2023-01-04T23:16:49.007Z,93488.63
2023-01-04T23:19:15.509Z,93537.69
2023-01-04T23:21:42.034Z,93604.47
2023-01-04T23:24:13.508Z,93664.41
2023-01-04T23:26:40.293Z,93722.69
2023-01-04T23:29:06.661Z,93759.31
2023-01-04T23:31:33.360Z,93781.03
2023-01-04T23:34:02.134Z,93781.44
2023-01-04T23:36:36.374Z,93738.00
2023-01-04T23:39:05.358Z,93696.19
2023-01-04T23:41:47.431Z,93721.91
2023-01-04T23:46:52.563Z,93741.19
2023-01-04T23:49:18.956Z,93748.03
2023-01-04T23:51:45.554Z,93766.13
2023-01-04T23:54:11.962Z,93803.34
2023-01-04T23:56:38.548Z,93906.72
2023-01-04T23:59:05.601Z,93990.03
